< < Back
Terminal Aerodrome Forecast


Current Version              Previous Versions:   1  2  3  4  5  6  7  8  9  

Terminal Aerodrome Forecast

250
FTUS42 KJAX 011720
TAFGNV
TAF
KGNV 011720Z 0118/0218 24008KT P6SM VCTS SCT025 BKN050CB
     FM012000 21005KT P6SM VCSH SCT040 BKN250
     FM020000 VRB03KT P6SM SCT100 BKN250=



Latest METAR

413
SAUS70 KWBC 020900 RRR
MTRGNV
METAR KGNV 020853Z AUTO 00000KT 10SM SCT065 23/22 A3003 RMK AO2 SLP164
T02330222 56011


USA.gov is the U.S. government's official web portal to all federal, state and local government web resources and services.